sensor_id;sensor_type;location;lat;lon;timestamp;pressure;altitude;pressure_sealevel;temperature;humidity
49825;BME280;35714;55.708;37.478;2023-04-26T00:00:21;98163.66;;;13.80;58.85
49825;BME280;35714;55.708;37.478;2023-04-26T00:02:47;98159.59;;;13.78;59.03
49825;BME280;35714;55.708;37.478;2023-04-26T00:05:14;98159.34;;;13.74;59.17
49825;BME280;35714;55.708;37.478;2023-04-26T00:07:41;98160.44;;;13.73;59.30
49825;BME280;35714;55.708;37.478;2023-04-26T00:10:08;98160.72;;;13.71;59.42
49825;BME280;35714;55.708;37.478;2023-04-26T00:12:35;98156.91;;;13.73;60.02
49825;BME280;35714;55.708;37.478;2023-04-26T00:15:03;98149.03;;;13.71;60.10
49825;BME280;35714;55.708;37.478;2023-04-26T00:17:30;98150.41;;;13.68;59.99
49825;BME280;35714;55.708;37.478;2023-04-26T00:19:56;98141.16;;;13.64;60.04
49825;BME280;35714;55.708;37.478;2023-04-26T00:22:22;98144.19;;;13.63;60.45
49825;BME280;35714;55.708;37.478;2023-04-26T00:24:48;98137.94;;;13.62;60.25
49825;BME280;35714;55.708;37.478;2023-04-26T00:27:15;98140.41;;;13.59;60.40
49825;BME280;35714;55.708;37.478;2023-04-26T00:29:41;98142.09;;;13.54;60.33
49825;BME280;35714;55.708;37.478;2023-04-26T00:32:07;98144.56;;;13.51;60.63
49825;BME280;35714;55.708;37.478;2023-04-26T00:34:34;98136.97;;;13.48;60.53
49825;BME280;35714;55.708;37.478;2023-04-26T00:37:00;98139.69;;;13.48;61.01
49825;BME280;35714;55.708;37.478;2023-04-26T00:39:27;98121.25;;;13.40;60.64
49825;BME280;35714;55.708;37.478;2023-04-26T00:41:53;98130.47;;;13.44;61.14
49825;BME280;35714;55.708;37.478;2023-04-26T00:44:20;98127.78;;;13.39;61.39
49825;BME280;35714;55.708;37.478;2023-04-26T00:46:47;98116.38;;;13.37;61.72
49825;BME280;35714;55.708;37.478;2023-04-26T00:49:16;98116.38;;;13.37;62.05
49825;BME280;35714;55.708;37.478;2023-04-26T00:51:43;98109.84;;;13.32;62.09
49825;BME280;35714;55.708;37.478;2023-04-26T00:54:13;98103.34;;;13.28;62.27
49825;BME280;35714;55.708;37.478;2023-04-26T00:56:40;98108.53;;;13.25;62.46
49825;BME280;35714;55.708;37.478;2023-04-26T00:59:06;98093.91;;;13.15;62.65
49825;BME280;35714;55.708;37.478;2023-04-26T01:01:33;98109.41;;;13.20;62.88
49825;BME280;35714;55.708;37.478;2023-04-26T01:04:01;98100.19;;;13.16;62.84
49825;BME280;35714;55.708;37.478;2023-04-26T01:06:33;98094.75;;;13.16;63.60
49825;BME280;35714;55.708;37.478;2023-04-26T01:09:04;98093.69;;;13.12;63.55
49825;BME280;35714;55.708;37.478;2023-04-26T01:11:35;98089.59;;;13.09;63.33
49825;BME280;35714;55.708;37.478;2023-04-26T01:14:03;98086.13;;;13.04;63.60
49825;BME280;35714;55.708;37.478;2023-04-26T01:16:29;98089.94;;;13.03;63.68
49825;BME280;35714;55.708;37.478;2023-04-26T01:18:55;98080.44;;;13.00;63.85
49825;BME280;35714;55.708;37.478;2023-04-26T01:21:23;98081.25;;;13.00;64.06
49825;BME280;35714;55.708;37.478;2023-04-26T01:23:50;98086.69;;;13.00;64.01
49825;BME280;35714;55.708;37.478;2023-04-26T01:26:17;98078.03;;;12.98;63.89
49825;BME280;35714;55.708;37.478;2023-04-26T01:28:43;98073.66;;;12.97;63.81
49825;BME280;35714;55.708;37.478;2023-04-26T01:31:11;98072.56;;;12.98;63.98
49825;BME280;35714;55.708;37.478;2023-04-26T01:33:37;98061.69;;;12.98;63.76
49825;BME280;35714;55.708;37.478;2023-04-26T01:36:07;98064.41;;;12.98;64.28
49825;BME280;35714;55.708;37.478;2023-04-26T01:38:34;98054.63;;;12.97;63.91
49825;BME280;35714;55.708;37.478;2023-04-26T01:41:00;98055.13;;;12.99;64.05
49825;BME280;35714;55.708;37.478;2023-04-26T01:43:25;98049.97;;;12.98;64.15
49825;BME280;35714;55.708;37.478;2023-04-26T01:45:52;98052.97;;;12.96;64.27
49825;BME280;35714;55.708;37.478;2023-04-26T01:48:28;98047.03;;;12.94;64.37
49825;BME280;35714;55.708;37.478;2023-04-26T01:50:55;98044.59;;;12.93;64.46
49825;BME280;35714;55.708;37.478;2023-04-26T01:53:20;98032.13;;;12.87;64.44
49825;BME280;35714;55.708;37.478;2023-04-26T01:55:46;98029.13;;;12.88;64.66
49825;BME280;35714;55.708;37.478;2023-04-26T01:58:12;98028.31;;;12.82;64.63
49825;BME280;35714;55.708;37.478;2023-04-26T02:00:37;98036.50;;;12.82;64.84
49825;BME280;35714;55.708;37.478;2023-04-26T02:03:03;98028.59;;;12.81;64.82
49825;BME280;35714;55.708;37.478;2023-04-26T02:05:29;98030.00;;;12.78;64.85
49825;BME280;35714;55.708;37.478;2023-04-26T02:07:55;98025.94;;;12.76;64.96
49825;BME280;35714;55.708;37.478;2023-04-26T02:10:21;98019.69;;;12.75;64.93
49825;BME280;35714;55.708;37.478;2023-04-26T02:12:47;98016.75;;;12.72;64.91
49825;BME280;35714;55.708;37.478;2023-04-26T02:15:13;98012.38;;;12.71;64.97
49825;BME280;35714;55.708;37.478;2023-04-26T02:17:39;98017.81;;;12.71;65.15
49825;BME280;35714;55.708;37.478;2023-04-26T02:20:06;98018.91;;;12.70;65.25
49825;BME280;35714;55.708;37.478;2023-04-26T02:22:35;98022.75;;;12.69;64.99
49825;BME280;35714;55.708;37.478;2023-04-26T02:25:01;98017.81;;;12.71;65.26
49825;BME280;35714;55.708;37.478;2023-04-26T02:27:31;98012.38;;;12.71;65.36
49825;BME280;35714;55.708;37.478;2023-04-26T02:29:58;98007.22;;;12.69;65.27
49825;BME280;35714;55.708;37.478;2023-04-26T02:32:25;97996.41;;;12.64;65.52
49825;BME280;35714;55.708;37.478;2023-04-26T02:34:50;97995.84;;;12.67;65.58
49825;BME280;35714;55.708;37.478;2023-04-26T02:37:16;98004.28;;;12.66;65.46
49825;BME280;35714;55.708;37.478;2023-04-26T02:39:43;97996.63;;;12.68;65.85
49825;BME280;35714;55.708;37.478;2023-04-26T02:42:10;97983.59;;;12.64;65.76
49825;BME280;35714;55.708;37.478;2023-04-26T02:44:35;97998.78;;;12.71;65.96
49825;BME280;35714;55.708;37.478;2023-04-26T02:47:02;97993.88;;;12.73;65.84
49825;BME280;35714;55.708;37.478;2023-04-26T02:49:29;97993.31;;;12.76;65.95
49825;BME280;35714;55.708;37.478;2023-04-26T02:51:55;97991.38;;;12.76;65.83
49825;BME280;35714;55.708;37.478;2023-04-26T02:54:21;97989.50;;;12.77;65.75
49825;BME280;35714;55.708;37.478;2023-04-26T02:56:47;97974.53;;;12.74;66.05
49825;BME280;35714;55.708;37.478;2023-04-26T02:59:13;97974.84;;;12.73;65.99
49825;BME280;35714;55.708;37.478;2023-04-26T03:01:38;97984.09;;;12.72;65.94
49825;BME280;35714;55.708;37.478;2023-04-26T03:04:04;97979.53;;;12.67;66.26
49825;BME280;35714;55.708;37.478;2023-04-26T03:06:31;97981.69;;;12.65;66.45
49825;BME280;35714;55.708;37.478;2023-04-26T03:08:58;97978.44;;;12.63;66.26
49825;BME280;35714;55.708;37.478;2023-04-26T03:11:24;97979.25;;;12.63;66.36
49825;BME280;35714;55.708;37.478;2023-04-26T03:13:50;97974.09;;;12.62;66.33
49825;BME280;35714;55.708;37.478;2023-04-26T03:16:18;97970.56;;;12.61;66.60
49825;BME280;35714;55.708;37.478;2023-04-26T03:18:45;97974.38;;;12.60;66.77
49825;BME280;35714;55.708;37.478;2023-04-26T03:21:11;97952.69;;;12.55;66.62
49825;BME280;35714;55.708;37.478;2023-04-26T03:23:37;97951.03;;;12.59;66.66
49825;BME280;35714;55.708;37.478;2023-04-26T03:26:03;97969.78;;;12.61;66.57
49825;BME280;35714;55.708;37.478;2023-04-26T03:28:28;97964.34;;;12.61;66.86
49825;BME280;35714;55.708;37.478;2023-04-26T03:30:55;97965.13;;;12.61;66.82
49825;BME280;35714;55.708;37.478;2023-04-26T03:33:21;97961.91;;;12.59;66.78
49825;BME280;35714;55.708;37.478;2023-04-26T03:35:47;97956.47;;;12.54;66.74
49825;BME280;35714;55.708;37.478;2023-04-26T03:38:13;97960.28;;;12.58;66.67
49825;BME280;35714;55.708;37.478;2023-04-26T03:40:39;97961.91;;;12.59;66.92
49825;BME280;35714;55.708;37.478;2023-04-26T03:43:05;97952.63;;;12.60;66.89
49825;BME280;35714;55.708;37.478;2023-04-26T03:45:30;97949.91;;;12.60;67.13
49825;BME280;35714;55.708;37.478;2023-04-26T03:47:56;97942.88;;;12.59;67.27
49825;BME280;35714;55.708;37.478;2023-04-26T03:50:22;97948.88;;;12.56;67.41
49825;BME280;35714;55.708;37.478;2023-04-26T03:52:48;97952.69;;;12.55;67.34
49825;BME280;35714;55.708;37.478;2023-04-26T03:55:14;97942.88;;;12.54;67.35
49825;BME280;35714;55.708;37.478;2023-04-26T03:57:40;97938.03;;;12.51;67.35
49825;BME280;35714;55.708;37.478;2023-04-26T04:00:07;97942.66;;;12.51;67.82
49825;BME280;35714;55.708;37.478;2023-04-26T04:02:41;97942.66;;;12.51;67.54
49825;BME280;35714;55.708;37.478;2023-04-26T04:05:10;97932.00;;;12.54;67.90
49825;BME280;35714;55.708;37.478;2023-04-26T04:07:36;97941.75;;;12.60;67.94
49825;BME280;35714;55.708;37.478;2023-04-26T04:10:02;97933.28;;;12.67;67.91
49825;BME280;35714;55.708;37.478;2023-04-26T04:12:29;97929.94;;;12.75;67.70
49825;BME280;35714;55.708;37.478;2023-04-26T04:14:55;97929.38;;;12.78;67.40
49825;BME280;35714;55.708;37.478;2023-04-26T04:17:22;97927.47;;;12.79;67.56
49825;BME280;35714;55.708;37.478;2023-04-26T04:19:48;97926.09;;;12.81;67.32
49825;BME280;35714;55.708;37.478;2023-04-26T04:22:15;97933.13;;;12.82;67.47
49825;BME280;35714;55.708;37.478;2023-04-26T04:24:40;97931.47;;;12.87;67.54
49825;BME280;35714;55.708;37.478;2023-04-26T04:27:08;97925.16;;;12.91;67.53
49825;BME280;35714;55.708;37.478;2023-04-26T04:29:34;97928.94;;;12.95;67.53
49825;BME280;35714;55.708;37.478;2023-04-26T04:32:00;97932.13;;;13.03;67.52
49825;BME280;35714;55.708;37.478;2023-04-26T04:34:26;97933.69;;;13.09;67.10
49825;BME280;35714;55.708;37.478;2023-04-26T04:36:53;97921.72;;;13.10;66.98
49825;BME280;35714;55.708;37.478;2023-04-26T04:39:19;97929.88;;;13.10;67.14
49825;BME280;35714;55.708;37.478;2023-04-26T04:41:45;97923.31;;;13.11;66.89
49825;BME280;35714;55.708;37.478;2023-04-26T04:44:15;97923.31;;;13.11;67.06
49825;BME280;35714;55.708;37.478;2023-04-26T04:46:42;97918.44;;;13.13;67.14
49825;BME280;35714;55.708;37.478;2023-04-26T04:49:08;97926.81;;;13.16;66.85
49825;BME280;35714;55.708;37.478;2023-04-26T04:51:37;97927.03;;;13.20;66.68
49825;BME280;35714;55.708;37.478;2023-04-26T04:54:13;97922.13;;;13.22;66.43
49825;BME280;35714;55.708;37.478;2023-04-26T04:56:39;97929.72;;;13.25;66.49
49825;BME280;35714;55.708;37.478;2023-04-26T04:59:06;97924.22;;;13.30;66.37
49825;BME280;35714;55.708;37.478;2023-04-26T05:01:33;97927.19;;;13.34;66.22
49825;BME280;35714;55.708;37.478;2023-04-26T05:04:04;97923.59;;;13.39;66.17
49825;BME280;35714;55.708;37.478;2023-04-26T05:06:32;97922.44;;;13.45;66.00
49825;BME280;35714;55.708;37.478;2023-04-26T05:08:58;97924.06;;;13.46;66.19
49825;BME280;35714;55.708;37.478;2023-04-26T05:11:25;97922.94;;;13.47;66.01
49825;BME280;35714;55.708;37.478;2023-04-26T05:13:51;97920.78;;;13.49;66.01
49825;BME280;35714;55.708;37.478;2023-04-26T05:16:16;97918.03;;;13.49;65.92
49825;BME280;35714;55.708;37.478;2023-04-26T05:18:42;97924.00;;;13.51;65.65
49825;BME280;35714;55.708;37.478;2023-04-26T05:21:09;97920.19;;;13.52;65.64
49825;BME280;35714;55.708;37.478;2023-04-26T05:23:34;97917.47;;;13.52;65.80
49825;BME280;35714;55.708;37.478;2023-04-26T05:26:03;97920.69;;;13.54;65.81
49825;BME280;35714;55.708;37.478;2023-04-26T05:29:05;97924.75;;;13.57;65.76
49825;BME280;35714;55.708;37.478;2023-04-26T05:31:51;97921.72;;;13.58;65.65
49825;BME280;35714;55.708;37.478;2023-04-26T05:34:24;97914.66;;;13.57;65.67
49825;BME280;35714;55.708;37.478;2023-04-26T05:36:54;97915.09;;;13.64;65.37
49825;BME280;35714;55.708;37.478;2023-04-26T05:39:20;97921.09;;;13.66;65.30
49825;BME280;35714;55.708;37.478;2023-04-26T05:41:46;97914.53;;;13.67;65.15
49825;BME280;35714;55.708;37.478;2023-04-26T05:44:12;97902.59;;;13.63;65.31
49825;BME280;35714;55.708;37.478;2023-04-26T05:46:40;97915.56;;;13.71;65.34
49825;BME280;35714;55.708;37.478;2023-04-26T05:49:07;97916.38;;;13.72;65.27
49825;BME280;35714;55.708;37.478;2023-04-26T05:51:33;97916.63;;;13.76;65.35
49825;BME280;35714;55.708;37.478;2023-04-26T05:53:58;97924.72;;;13.81;65.34
49825;BME280;35714;55.708;37.478;2023-04-26T05:56:25;97909.41;;;13.85;65.18
49825;BME280;35714;55.708;37.478;2023-04-26T05:58:51;97916.91;;;13.93;64.79
49825;BME280;35714;55.708;37.478;2023-04-26T06:01:18;97913.31;;;13.98;64.71
49825;BME280;35714;55.708;37.478;2023-04-26T06:03:45;97915.16;;;14.02;64.65
49825;BME280;35714;55.708;37.478;2023-04-26T06:06:11;97919.44;;;14.08;64.63
49825;BME280;35714;55.708;37.478;2023-04-26T06:08:41;97923.69;;;14.15;64.37
49825;BME280;35714;55.708;37.478;2023-04-26T06:11:07;97919.25;;;14.19;64.37
49825;BME280;35714;55.708;37.478;2023-04-26T06:13:33;97927.34;;;14.24;64.22
49825;BME280;35714;55.708;37.478;2023-04-26T06:15:59;97926.25;;;14.25;64.36
49825;BME280;35714;55.708;37.478;2023-04-26T06:18:25;97926.19;;;14.30;64.12
49825;BME280;35714;55.708;37.478;2023-04-26T06:20:50;97930.03;;;14.29;63.96
49825;BME280;35714;55.708;37.478;2023-04-26T06:23:16;97930.31;;;14.28;64.29
49825;BME280;35714;55.708;37.478;2023-04-26T06:25:42;97928.41;;;14.28;64.18
49825;BME280;35714;55.708;37.478;2023-04-26T06:28:12;97925.59;;;14.33;64.29
49825;BME280;35714;55.708;37.478;2023-04-26T06:30:38;97924.00;;;14.32;64.22
49825;BME280;35714;55.708;37.478;2023-04-26T06:33:05;97933.25;;;14.31;63.89
49825;BME280;35714;55.708;37.478;2023-04-26T06:35:31;97925.16;;;14.26;64.10
49825;BME280;35714;55.708;37.478;2023-04-26T06:37:58;97934.66;;;14.29;63.86
49825;BME280;35714;55.708;37.478;2023-04-26T06:40:25;97932.31;;;14.22;64.01
49825;BME280;35714;55.708;37.478;2023-04-26T06:42:51;97933.94;;;14.23;63.90
49825;BME280;35714;55.708;37.478;2023-04-26T06:45:44;97929.97;;;14.15;63.82
49825;BME280;35714;55.708;37.478;2023-04-26T06:48:11;97940.47;;;14.22;64.05
49825;BME280;35714;55.708;37.478;2023-04-26T06:50:37;97941.53;;;14.26;64.10
49825;BME280;35714;55.708;37.478;2023-04-26T06:53:04;97940.94;;;14.29;63.74
49825;BME280;35714;55.708;37.478;2023-04-26T06:55:30;97941.34;;;14.36;63.67
49825;BME280;35714;55.708;37.478;2023-04-26T06:57:55;97947.56;;;14.42;63.51
49825;BME280;35714;55.708;37.478;2023-04-26T07:00:21;97947.25;;;14.43;63.30
49825;BME280;35714;55.708;37.478;2023-04-26T07:02:47;97951.53;;;14.50;63.37
49825;BME280;35714;55.708;37.478;2023-04-26T07:05:13;97955.56;;;14.52;63.52
49825;BME280;35714;55.708;37.478;2023-04-26T07:07:39;97946.56;;;14.52;63.44
49825;BME280;35714;55.708;37.478;2023-04-26T07:10:06;97945.47;;;14.53;63.16
49825;BME280;35714;55.708;37.478;2023-04-26T07:12:32;97959.63;;;14.55;62.88
49825;BME280;35714;55.708;37.478;2023-04-26T07:14:58;97950.53;;;14.59;62.84
49825;BME280;35714;55.708;37.478;2023-04-26T07:17:26;97960.09;;;14.62;62.88
49825;BME280;35714;55.708;37.478;2023-04-26T07:19:52;97949.69;;;14.64;62.85
49825;BME280;35714;55.708;37.478;2023-04-26T07:22:18;97955.66;;;14.66;62.66
49825;BME280;35714;55.708;37.478;2023-04-26T07:24:44;97960.50;;;14.69;62.52
49825;BME280;35714;55.708;37.478;2023-04-26T07:27:09;97962.63;;;14.72;62.46
49825;BME280;35714;55.708;37.478;2023-04-26T07:29:35;97966.31;;;14.82;62.54
49825;BME280;35714;55.708;37.478;2023-04-26T07:32:01;97963.78;;;14.85;62.50
49825;BME280;35714;55.708;37.478;2023-04-26T07:34:26;97976.53;;;14.90;62.27
49825;BME280;35714;55.708;37.478;2023-04-26T07:36:52;97965.63;;;14.90;62.14
49825;BME280;35714;55.708;37.478;2023-04-26T07:39:18;97973.81;;;14.90;62.38
49825;BME280;35714;55.708;37.478;2023-04-26T07:41:44;97969.09;;;14.95;62.42
49825;BME280;35714;55.708;37.478;2023-04-26T07:44:09;97973.03;;;15.03;62.48
49825;BME280;35714;55.708;37.478;2023-04-26T07:46:35;97978.59;;;15.12;62.13
49825;BME280;35714;55.708;37.478;2023-04-26T07:49:02;97967.31;;;15.19;61.87
49825;BME280;35714;55.708;37.478;2023-04-26T07:51:28;97968.31;;;15.23;61.99
49825;BME280;35714;55.708;37.478;2023-04-26T07:53:53;97971.97;;;15.32;61.71
49825;BME280;35714;55.708;37.478;2023-04-26T07:56:22;97979.69;;;15.44;61.44
49825;BME280;35714;55.708;37.478;2023-04-26T07:58:48;97974.59;;;15.51;61.51
49825;BME280;35714;55.708;37.478;2023-04-26T08:01:14;97973.22;;;15.67;61.54
49825;BME280;35714;55.708;37.478;2023-04-26T08:03:41;97980.00;;;15.84;61.26
49825;BME280;35714;55.708;37.478;2023-04-26T08:06:07;97980.47;;;16.00;60.74
49825;BME280;35714;55.708;37.478;2023-04-26T08:08:35;97986.13;;;16.17;60.21
49825;BME280;35714;55.708;37.478;2023-04-26T08:11:07;97982.06;;;16.29;60.27
49825;BME280;35714;55.708;37.478;2023-04-26T08:13:34;97983.00;;;16.47;59.14
49825;BME280;35714;55.708;37.478;2023-04-26T08:16:00;97986.19;;;16.63;59.05
49825;BME280;35714;55.708;37.478;2023-04-26T08:18:25;97982.94;;;16.83;58.81
49825;BME280;35714;55.708;37.478;2023-04-26T08:20:51;97986.44;;;16.98;57.89
49825;BME280;35714;55.708;37.478;2023-04-26T08:23:20;97991.63;;;16.99;58.02
49825;BME280;35714;55.708;37.478;2023-04-26T08:25:47;97989.72;;;17.00;57.58
49825;BME280;35714;55.708;37.478;2023-04-26T08:28:14;98002.88;;;16.98;57.58
49825;BME280;35714;55.708;37.478;2023-04-26T08:30:41;97994.09;;;17.09;57.63
49825;BME280;35714;55.708;37.478;2023-04-26T08:33:08;98000.00;;;17.25;57.27
49825;BME280;35714;55.708;37.478;2023-04-26T08:35:34;97995.53;;;17.38;56.62
49825;BME280;35714;55.708;37.478;2023-04-26T08:38:00;98006.69;;;17.42;55.95
49825;BME280;35714;55.708;37.478;2023-04-26T08:40:26;98006.47;;;17.29;55.19
49825;BME280;35714;55.708;37.478;2023-04-26T08:42:52;98004.75;;;17.11;56.16
49825;BME280;35714;55.708;37.478;2023-04-26T08:45:22;98009.38;;;17.02;56.73
49825;BME280;35714;55.708;37.478;2023-04-26T08:47:48;98001.28;;;16.97;56.87
49825;BME280;35714;55.708;37.478;2023-04-26T08:50:17;98006.25;;;16.94;56.98
49825;BME280;35714;55.708;37.478;2023-04-26T08:52:43;98004.50;;;16.99;57.42
49825;BME280;35714;55.708;37.478;2023-04-26T08:55:10;98004.25;;;17.09;57.70
49825;BME280;35714;55.708;37.478;2023-04-26T08:57:38;98010.78;;;17.22;57.11
49825;BME280;35714;55.708;37.478;2023-04-26T09:00:06;98012.06;;;17.24;56.73
49825;BME280;35714;55.708;37.478;2023-04-26T09:02:39;98009.31;;;17.24;56.60
49825;BME280;35714;55.708;37.478;2023-04-26T09:05:09;98012.91;;;17.25;56.66
49825;BME280;35714;55.708;37.478;2023-04-26T09:07:42;98014.63;;;17.21;56.28
49825;BME280;35714;55.708;37.478;2023-04-26T09:10:10;98023.31;;;17.14;56.53
49825;BME280;35714;55.708;37.478;2023-04-26T09:12:37;98020.81;;;17.04;56.31
49825;BME280;35714;55.708;37.478;2023-04-26T09:15:06;98020.78;;;16.81;57.27
49825;BME280;35714;55.708;37.478;2023-04-26T09:17:34;98028.56;;;16.65;57.31
49825;BME280;35714;55.708;37.478;2023-04-26T09:20:27;98024.13;;;16.55;57.48
49825;BME280;35714;55.708;37.478;2023-04-26T09:23:03;98037.53;;;16.43;57.72
49825;BME280;35714;55.708;37.478;2023-04-26T09:25:30;98028.66;;;16.23;57.77
49825;BME280;35714;55.708;37.478;2023-04-26T09:27:57;98036.19;;;16.04;58.18
49825;BME280;35714;55.708;37.478;2023-04-26T09:30:23;98036.13;;;15.76;59.46
49825;BME280;35714;55.708;37.478;2023-04-26T09:32:58;98024.19;;;15.44;60.64
49825;BME280;35714;55.708;37.478;2023-04-26T09:40:50;98034.13;;;15.21;61.96
49825;BME280;35714;55.708;37.478;2023-04-26T09:43:20;98035.78;;;15.22;62.06
49825;BME280;35714;55.708;37.478;2023-04-26T09:45:56;98044.66;;;15.28;62.53
49825;BME280;35714;55.708;37.478;2023-04-26T09:50:58;98045.91;;;15.22;61.75
49825;BME280;35714;55.708;37.478;2023-04-26T09:53:47;98043.97;;;15.22;61.89
49825;BME280;35714;55.708;37.478;2023-04-26T09:56:22;98052.47;;;15.21;62.74
49825;BME280;35714;55.708;37.478;2023-04-26T10:01:18;98045.44;;;15.47;62.45
49825;BME280;35714;55.708;37.478;2023-04-26T10:03:46;98063.69;;;15.66;62.57
49825;BME280;35714;55.708;37.478;2023-04-26T10:06:12;98055.28;;;15.76;61.23
49825;BME280;35714;55.708;37.478;2023-04-26T10:08:38;98059.06;;;15.80;61.50
49825;BME280;35714;55.708;37.478;2023-04-26T10:11:04;98066.97;;;15.96;60.35
49825;BME280;35714;55.708;37.478;2023-04-26T10:13:32;98062.59;;;15.95;59.96
49825;BME280;35714;55.708;37.478;2023-04-26T10:16:01;98066.38;;;15.99;60.51
49825;BME280;35714;55.708;37.478;2023-04-26T10:18:27;98066.44;;;16.21;60.32
49825;BME280;35714;55.708;37.478;2023-04-26T10:20:56;98065.50;;;16.40;58.99
49825;BME280;35714;55.708;37.478;2023-04-26T10:23:23;98057.47;;;16.57;57.26
49825;BME280;35714;55.708;37.478;2023-04-26T10:25:53;98060.56;;;16.65;57.05
49825;BME280;35714;55.708;37.478;2023-04-26T10:31:13;98067.13;;;17.14;56.58
49825;BME280;35714;55.708;37.478;2023-04-26T10:33:39;98063.72;;;17.40;55.83
49825;BME280;35714;55.708;37.478;2023-04-26T10:36:05;98070.31;;;17.61;55.01
49825;BME280;35714;55.708;37.478;2023-04-26T10:38:33;98069.28;;;17.48;54.58
49825;BME280;35714;55.708;37.478;2023-04-26T10:41:33;98075.94;;;17.34;54.92
49825;BME280;35714;55.708;37.478;2023-04-26T10:47:06;98084.34;;;16.55;56.13
49825;BME280;35714;55.708;37.478;2023-04-26T10:49:45;98078.09;;;16.27;57.33
49825;BME280;35714;55.708;37.478;2023-04-26T10:52:16;98084.38;;;16.14;57.74
49825;BME280;35714;55.708;37.478;2023-04-26T10:54:44;98088.81;;;16.10;58.47
49825;BME280;35714;55.708;37.478;2023-04-26T10:57:10;98093.59;;;16.04;58.30
49825;BME280;35714;55.708;37.478;2023-04-26T10:59:36;98099.16;;;15.99;58.61
49825;BME280;35714;55.708;37.478;2023-04-26T11:02:02;98102.50;;;15.96;58.53
49825;BME280;35714;55.708;37.478;2023-04-26T11:04:51;98102.28;;;16.06;58.77
49825;BME280;35714;55.708;37.478;2023-04-26T11:07:35;98106.06;;;16.10;58.33
49825;BME280;35714;55.708;37.478;2023-04-26T11:10:01;98095.50;;;16.17;58.46
49825;BME280;35714;55.708;37.478;2023-04-26T11:12:29;98103.19;;;16.43;57.70
49825;BME280;35714;55.708;37.478;2023-04-26T11:14:58;98105.78;;;16.90;57.58
49825;BME280;35714;55.708;37.478;2023-04-26T11:17:25;98107.97;;;17.78;56.82
49825;BME280;35714;55.708;37.478;2023-04-26T11:19:50;98097.66;;;18.90;53.28
49825;BME280;35714;55.708;37.478;2023-04-26T11:22:21;98110.22;;;20.17;49.33
49825;BME280;35714;55.708;37.478;2023-04-26T11:24:46;98099.44;;;21.26;46.92
49825;BME280;35714;55.708;37.478;2023-04-26T11:27:12;98105.84;;;21.73;45.72
49825;BME280;35714;55.708;37.478;2023-04-26T11:29:38;98109.47;;;21.65;44.85
49825;BME280;35714;55.708;37.478;2023-04-26T11:32:04;98108.03;;;21.46;44.92
49825;BME280;35714;55.708;37.478;2023-04-26T11:34:33;98118.53;;;21.32;44.02
49825;BME280;35714;55.708;37.478;2023-04-26T11:37:04;98108.56;;;20.85;44.93
49825;BME280;35714;55.708;37.478;2023-04-26T11:39:36;98108.03;;;20.62;45.59
49825;BME280;35714;55.708;37.478;2023-04-26T11:42:09;98113.72;;;20.86;45.52
49825;BME280;35714;55.708;37.478;2023-04-26T11:44:37;98115.72;;;21.86;44.51
49825;BME280;35714;55.708;37.478;2023-04-26T11:47:04;98118.28;;;22.78;42.01
49825;BME280;35714;55.708;37.478;2023-04-26T11:49:31;98121.47;;;23.45;41.56
49825;BME280;35714;55.708;37.478;2023-04-26T11:51:58;98119.97;;;23.48;37.94
49825;BME280;35714;55.708;37.478;2023-04-26T11:54:32;98130.50;;;22.89;39.23
49825;BME280;35714;55.708;37.478;2023-04-26T11:56:58;98128.44;;;22.24;40.02
49825;BME280;35714;55.708;37.478;2023-04-26T12:01:50;98126.72;;;21.61;41.28
49825;BME280;35714;55.708;37.478;2023-04-26T12:04:17;98128.88;;;21.35;41.70
49825;BME280;35714;55.708;37.478;2023-04-26T12:06:44;98135.22;;;21.14;42.38
49825;BME280;35714;55.708;37.478;2023-04-26T12:09:11;98138.84;;;20.85;42.72
49825;BME280;35714;55.708;37.478;2023-04-26T12:11:37;98163.97;;;20.53;43.23
49825;BME280;35714;55.708;37.478;2023-04-26T12:14:03;98157.00;;;20.17;44.30
49825;BME280;35714;55.708;37.478;2023-04-26T12:16:30;98156.13;;;19.78;45.02
49825;BME280;35714;55.708;37.478;2023-04-26T12:18:56;98154.53;;;19.42;45.99
49825;BME280;35714;55.708;37.478;2023-04-26T12:21:22;98147.94;;;19.08;45.70
49825;BME280;35714;55.708;37.478;2023-04-26T12:23:52;98156.91;;;18.83;46.12
49825;BME280;35714;55.708;37.478;2023-04-26T12:26:17;98151.75;;;18.72;46.87
49825;BME280;35714;55.708;37.478;2023-04-26T12:28:44;98158.50;;;18.66;46.00
49825;BME280;35714;55.708;37.478;2023-04-26T12:31:11;98157.53;;;18.62;45.05
49825;BME280;35714;55.708;37.478;2023-04-26T12:33:37;98152.03;;;18.62;44.94
49825;BME280;35714;55.708;37.478;2023-04-26T12:38:32;98148.91;;;19.21;42.85
49825;BME280;35714;55.708;37.478;2023-04-26T12:40:58;98142.09;;;19.45;42.90
49825;BME280;35714;55.708;37.478;2023-04-26T12:43:25;98143.75;;;20.11;41.06
49825;BME280;35714;55.708;37.478;2023-04-26T12:45:51;98139.19;;;20.83;40.71
49825;BME280;35714;55.708;37.478;2023-04-26T12:48:17;98153.72;;;22.02;39.42
49825;BME280;35714;55.708;37.478;2023-04-26T12:50:42;98157.06;;;23.47;36.42
49825;BME280;35714;55.708;37.478;2023-04-26T12:53:08;98157.41;;;24.18;35.13
49825;BME280;35714;55.708;37.478;2023-04-26T12:55:35;98157.25;;;24.10;34.78
49825;BME280;35714;55.708;37.478;2023-04-26T12:58:01;98153.34;;;23.83;35.07
49825;BME280;35714;55.708;37.478;2023-04-26T13:00:27;98155.31;;;24.59;35.07
49825;BME280;35714;55.708;37.478;2023-04-26T13:02:52;98157.31;;;25.91;32.65
49825;BME280;35714;55.708;37.478;2023-04-26T13:05:18;98159.38;;;27.21;30.40
49825;BME280;35714;55.708;37.478;2023-04-26T13:07:44;98169.72;;;28.19;29.16
49825;BME280;35714;55.708;37.478;2023-04-26T13:10:10;98177.06;;;28.90;28.53
49825;BME280;35714;55.708;37.478;2023-04-26T13:12:37;98174.63;;;29.55;27.55